Barmouth, United Kingdom
Current Conditions -  °F | °C
As of 2:50 AM on Sunday 25 Jan 2015 (Local Time) from EGOV Reporting Station
Overcast Overcast  
Wind Chill:   Ceiling: 9000
Heat Index:   Visibility: 6mi
Dew Point:   Wind: 20mph
Humidity: 66%   Direction: 230°SW
Pressure: 30.39"   Gusts: NA
Location:  52.72°N, 4.06°W
Report Text: EGOV 250250Z AUTO 23017KT 9999 FEW038/// SCT060/// OVC090/// 08/02 Q1029
Loading
Personal Weather Stations






























Interactive Weather Map New forecast layout! Learn more

10-Day Weather Forecast

Advertisements
Track Severe Weather on mobile